Strona główna
METAR-TAF:

METAR-TAF

Lotnisko :

Port lotniczy Curaçao

Curaçao, Antyle Holenderskie

Szerokość geograficzna: 12-12N, Długość geograficzna: 068-58W, wysokość: 9 m

Aktualna obserwacja pogody

Raport powstał 43 minut temu, godzina 12:52 UTC
Wiatr 12 kt od południowy wschód
Temperatura 29°C
Wilgotność 74%
Ciśnienie 1014 hPa
Widzialność 10 km lub więcej
Rozproszone chmury na wysokości 1900 ft

METAR: TNCC 201252Z 13012KT 9999 SCT019 29/24 Q1014 NOSIG

czas: 09:35 (13:35 UTC)

Prognoza

Raport powstał 3 godziny i 35 minut temu, godzina 10:00 UTC
Prognoza ważna od 20 godzina 12 UTC do 21 godzina 12 UTC
Wiatr 15 kt od wschodnio-południowy wschód
Widzialność 10 km lub więcej
Rozproszone chmury na wysokości 1800 ft
Prawdopodobieństwo 30% :
Przejściowo
od 20 godzina 12 UTC do 20 godzina 15 UTC
Przerywane chmury na wysokości 1500 ft

TAF: TNCC 201000Z 2012/2112 11015KT 9999 SCT018 PROB30 TEMPO 2012/2015 BKN015

Obserwacja i prognoza pogody dla ponad 4000 lotnisk (raport METAR i TAF).

Dostępne stacje oznaczono żółtymi i czerwonymi punktami na mapie.

Najedź kursorem aby zobaczyć nazwę stacji.

Kliknij aby zobaczyć obserwacje i prognozy pogody.

Aby zmienić mapę: kliknij na zielony przycisk z czarnym krzyżykiem, aby powiększyć; na zielony przycisk z myślnikiem, aby pomniejszyć; na zielone strzałki, aby przejść do map sąsiednich.


METAR-TAF: